Startpagina
METAR-TAF:

METAR-TAF

Vliegvelden :

Flughafen Köln-Bonn

Keulen, Duitsland

breedte: 50-52N, lengte: 007-10E, hoogte: 91 m

Actueel weer

Dit bericht is 13 minuten geleden gemaakt, om 01:20 UTC
Wind 4 kt uit het oostnoordoosten
Temperatuur 1°C
Vochtigheid 75%
Druk 1029 hPa
Zicht 10 km of meer
geen wolken onder 1500 m en geen cumulonimbus

METAR: EDDK 180120Z 07004KT CAVOK 01/M03 Q1029 NOSIG

Tijdstip: 02:33 (01:33 UTC)

Verwachting

Dit bericht is 2 uur en het 33 minuten geleden gemaakt, om 23:00 UTC
Verwachting geldig van 18 om 00 UTC tot 19 om 06 UTC
Wind 6 kt uit het oosten
Zicht 10 km of meer
geen wolken onder 1500 m en geen cumulonimbus
Wijzigt naar
van 18 om 11 UTC tot 18 om 14 UTC
Wind 5 kt uit het noordoosten

TAF: EDDK 172300Z 1800/1906 10006KT CAVOK BECMG 1811/1814 04005KT

Waarnemingen en weersverwachtingen van meer dan 4000 vliegvelden (METAR en TAF).

De beschikbare stations zijn de gele en rode punten op de kaart.

Ga met uw muis naar het station om de naam te zien.

Klik dan om waarnemingen en weersverwachtingen te zien.

kaart wijzigen: klik op de groene knoppen met een zwart kruis om in te zoomen, op de groene knop met een streepje om uit te zoomen of op de groene pijlen voor aangrenzende kaarten.


METAR-TAF: